sensor_id;sensor_type;location;lat;lon;timestamp;P1;durP1;ratioP1;P2;durP2;ratioP2
14945;SDS011;7567;50.916;6.900;2022-07-23T00:00:31;23.88;;;21.10;;
14945;SDS011;7567;50.916;6.900;2022-07-23T00:02:57;24.30;;;19.55;;
14945;SDS011;7567;50.916;6.900;2022-07-23T00:05:23;19.00;;;17.17;;
14945;SDS011;7567;50.916;6.900;2022-07-23T00:07:49;18.67;;;16.70;;
14945;SDS011;7567;50.916;6.900;2022-07-23T00:10:15;19.40;;;17.35;;
14945;SDS011;7567;50.916;6.900;2022-07-23T00:12:41;19.35;;;17.15;;
14945;SDS011;7567;50.916;6.900;2022-07-23T00:15:08;20.42;;;18.08;;
14945;SDS011;7567;50.916;6.900;2022-07-23T00:17:35;21.33;;;18.92;;
14945;SDS011;7567;50.916;6.900;2022-07-23T00:20:01;23.00;;;20.50;;
14945;SDS011;7567;50.916;6.900;2022-07-23T00:22:27;21.63;;;19.30;;
14945;SDS011;7567;50.916;6.900;2022-07-23T00:24:54;23.67;;;21.20;;
14945;SDS011;7567;50.916;6.900;2022-07-23T00:27:21;24.15;;;20.65;;
14945;SDS011;7567;50.916;6.900;2022-07-23T00:29:47;22.95;;;20.35;;
14945;SDS011;7567;50.916;6.900;2022-07-23T00:32:13;19.77;;;17.45;;
14945;SDS011;7567;50.916;6.900;2022-07-23T00:34:40;23.75;;;18.08;;
14945;SDS011;7567;50.916;6.900;2022-07-23T00:37:06;20.42;;;18.05;;
14945;SDS011;7567;50.916;6.900;2022-07-23T00:39:32;19.92;;;17.80;;
14945;SDS011;7567;50.916;6.900;2022-07-23T00:41:58;19.13;;;17.13;;
14945;SDS011;7567;50.916;6.900;2022-07-23T00:44:25;19.17;;;16.25;;
14945;SDS011;7567;50.916;6.900;2022-07-23T00:46:53;19.20;;;17.20;;
14945;SDS011;7567;50.916;6.900;2022-07-23T00:49:25;20.38;;;17.83;;
14945;SDS011;7567;50.916;6.900;2022-07-23T00:51:53;19.95;;;16.92;;
14945;SDS011;7567;50.916;6.900;2022-07-23T00:54:21;21.48;;;18.23;;
14945;SDS011;7567;50.916;6.900;2022-07-23T00:56:48;20.02;;;17.45;;
14945;SDS011;7567;50.916;6.900;2022-07-23T00:59:15;19.63;;;17.65;;
14945;SDS011;7567;50.916;6.900;2022-07-23T01:01:41;17.88;;;16.17;;
14945;SDS011;7567;50.916;6.900;2022-07-23T01:04:09;18.27;;;16.35;;
14945;SDS011;7567;50.916;6.900;2022-07-23T01:06:37;18.92;;;17.02;;
14945;SDS011;7567;50.916;6.900;2022-07-23T01:09:05;20.17;;;17.35;;
14945;SDS011;7567;50.916;6.900;2022-07-23T01:11:34;19.15;;;16.95;;
14945;SDS011;7567;50.916;6.900;2022-07-23T01:14:15;17.63;;;15.75;;
14945;SDS011;7567;50.916;6.900;2022-07-23T01:16:42;19.70;;;17.52;;
14945;SDS011;7567;50.916;6.900;2022-07-23T01:19:09;19.70;;;17.80;;
14945;SDS011;7567;50.916;6.900;2022-07-23T01:21:37;19.42;;;17.30;;
14945;SDS011;7567;50.916;6.900;2022-07-23T01:24:05;18.35;;;16.52;;
14945;SDS011;7567;50.916;6.900;2022-07-23T01:26:32;19.17;;;17.17;;
14945;SDS011;7567;50.916;6.900;2022-07-23T01:28:58;18.95;;;17.02;;
14945;SDS011;7567;50.916;6.900;2022-07-23T01:31:24;19.17;;;17.17;;
14945;SDS011;7567;50.916;6.900;2022-07-23T01:33:51;29.33;;;19.83;;
14945;SDS011;7567;50.916;6.900;2022-07-23T01:36:17;28.38;;;18.90;;
14945;SDS011;7567;50.916;6.900;2022-07-23T01:38:43;20.20;;;18.02;;
14945;SDS011;7567;50.916;6.900;2022-07-23T01:41:09;19.45;;;17.38;;
14945;SDS011;7567;50.916;6.900;2022-07-23T01:43:36;17.73;;;15.95;;
14945;SDS011;7567;50.916;6.900;2022-07-23T01:46:02;18.55;;;16.25;;
14945;SDS011;7567;50.916;6.900;2022-07-23T01:48:28;20.20;;;17.48;;
14945;SDS011;7567;50.916;6.900;2022-07-23T01:50:54;20.45;;;15.57;;
14945;SDS011;7567;50.916;6.900;2022-07-23T01:53:20;16.70;;;14.93;;
14945;SDS011;7567;50.916;6.900;2022-07-23T01:55:46;17.13;;;15.32;;
14945;SDS011;7567;50.916;6.900;2022-07-23T01:58:12;18.13;;;15.82;;
14945;SDS011;7567;50.916;6.900;2022-07-23T02:00:38;16.33;;;14.60;;
14945;SDS011;7567;50.916;6.900;2022-07-23T02:03:04;18.40;;;16.50;;
14945;SDS011;7567;50.916;6.900;2022-07-23T02:05:30;17.88;;;16.05;;
14945;SDS011;7567;50.916;6.900;2022-07-23T02:07:57;16.27;;;14.57;;
14945;SDS011;7567;50.916;6.900;2022-07-23T02:10:24;20.13;;;15.75;;
14945;SDS011;7567;50.916;6.900;2022-07-23T02:12:50;16.80;;;15.00;;
14945;SDS011;7567;50.916;6.900;2022-07-23T02:15:16;17.25;;;15.52;;
14945;SDS011;7567;50.916;6.900;2022-07-23T02:17:42;18.75;;;16.75;;
14945;SDS011;7567;50.916;6.900;2022-07-23T02:20:09;17.88;;;16.17;;
14945;SDS011;7567;50.916;6.900;2022-07-23T02:22:36;18.90;;;16.40;;
14945;SDS011;7567;50.916;6.900;2022-07-23T02:25:03;19.23;;;17.27;;
14945;SDS011;7567;50.916;6.900;2022-07-23T02:27:30;18.25;;;15.98;;
14945;SDS011;7567;50.916;6.900;2022-07-23T02:29:57;18.25;;;16.35;;
14945;SDS011;7567;50.916;6.900;2022-07-23T02:32:23;18.27;;;16.27;;
14945;SDS011;7567;50.916;6.900;2022-07-23T02:34:50;18.45;;;16.13;;
14945;SDS011;7567;50.916;6.900;2022-07-23T02:37:16;17.38;;;15.02;;
14945;SDS011;7567;50.916;6.900;2022-07-23T02:39:43;17.67;;;15.88;;
14945;SDS011;7567;50.916;6.900;2022-07-23T02:42:09;17.92;;;16.27;;
14945;SDS011;7567;50.916;6.900;2022-07-23T02:44:35;20.75;;;17.25;;
14945;SDS011;7567;50.916;6.900;2022-07-23T02:47:02;18.77;;;16.80;;
14945;SDS011;7567;50.916;6.900;2022-07-23T02:49:28;18.25;;;16.45;;
14945;SDS011;7567;50.916;6.900;2022-07-23T02:51:54;17.95;;;16.08;;
14945;SDS011;7567;50.916;6.900;2022-07-23T02:54:20;18.40;;;16.60;;
14945;SDS011;7567;50.916;6.900;2022-07-23T02:56:46;18.75;;;16.85;;
14945;SDS011;7567;50.916;6.900;2022-07-23T02:59:12;18.17;;;16.58;;
14945;SDS011;7567;50.916;6.900;2022-07-23T03:01:38;18.60;;;16.70;;
14945;SDS011;7567;50.916;6.900;2022-07-23T03:04:04;19.63;;;17.63;;
14945;SDS011;7567;50.916;6.900;2022-07-23T03:06:30;20.50;;;18.25;;
14945;SDS011;7567;50.916;6.900;2022-07-23T03:08:56;18.98;;;17.00;;
14945;SDS011;7567;50.916;6.900;2022-07-23T03:11:22;19.77;;;17.73;;
14945;SDS011;7567;50.916;6.900;2022-07-23T03:13:48;18.05;;;16.20;;
14945;SDS011;7567;50.916;6.900;2022-07-23T03:16:13;19.30;;;16.67;;
14945;SDS011;7567;50.916;6.900;2022-07-23T03:18:39;18.27;;;16.23;;
14945;SDS011;7567;50.916;6.900;2022-07-23T03:21:06;18.60;;;16.80;;
14945;SDS011;7567;50.916;6.900;2022-07-23T03:23:32;17.55;;;15.95;;
14945;SDS011;7567;50.916;6.900;2022-07-23T03:25:58;17.92;;;16.23;;
14945;SDS011;7567;50.916;6.900;2022-07-23T03:28:24;17.98;;;16.13;;
14945;SDS011;7567;50.916;6.900;2022-07-23T03:30:50;18.70;;;16.98;;
14945;SDS011;7567;50.916;6.900;2022-07-23T03:33:17;19.20;;;17.33;;
14945;SDS011;7567;50.916;6.900;2022-07-23T03:35:44;19.02;;;17.02;;
14945;SDS011;7567;50.916;6.900;2022-07-23T03:38:11;17.33;;;15.73;;
14945;SDS011;7567;50.916;6.900;2022-07-23T03:40:37;16.67;;;14.98;;
14945;SDS011;7567;50.916;6.900;2022-07-23T03:43:03;17.27;;;15.57;;
14945;SDS011;7567;50.916;6.900;2022-07-23T03:45:30;16.13;;;14.52;;
14945;SDS011;7567;50.916;6.900;2022-07-23T03:47:56;17.95;;;16.15;;
14945;SDS011;7567;50.916;6.900;2022-07-23T03:50:22;18.10;;;16.40;;
14945;SDS011;7567;50.916;6.900;2022-07-23T03:52:49;17.60;;;16.00;;
14945;SDS011;7567;50.916;6.900;2022-07-23T03:55:15;17.58;;;15.98;;
14945;SDS011;7567;50.916;6.900;2022-07-23T03:57:41;18.13;;;16.33;;
14945;SDS011;7567;50.916;6.900;2022-07-23T04:00:07;17.75;;;16.05;;
14945;SDS011;7567;50.916;6.900;2022-07-23T04:02:35;16.55;;;15.05;;
14945;SDS011;7567;50.916;6.900;2022-07-23T04:05:02;16.27;;;14.57;;
14945;SDS011;7567;50.916;6.900;2022-07-23T04:07:29;16.25;;;14.68;;
14945;SDS011;7567;50.916;6.900;2022-07-23T04:09:55;17.85;;;16.08;;
14945;SDS011;7567;50.916;6.900;2022-07-23T04:12:22;19.10;;;17.20;;
14945;SDS011;7567;50.916;6.900;2022-07-23T04:14:48;19.52;;;17.23;;
14945;SDS011;7567;50.916;6.900;2022-07-23T04:17:14;20.77;;;18.23;;
14945;SDS011;7567;50.916;6.900;2022-07-23T04:19:40;20.23;;;18.15;;
14945;SDS011;7567;50.916;6.900;2022-07-23T04:22:07;19.63;;;17.83;;
14945;SDS011;7567;50.916;6.900;2022-07-23T04:24:33;18.27;;;16.48;;
14945;SDS011;7567;50.916;6.900;2022-07-23T04:26:59;21.00;;;18.90;;
14945;SDS011;7567;50.916;6.900;2022-07-23T04:29:25;26.55;;;23.75;;
14945;SDS011;7567;50.916;6.900;2022-07-23T04:31:51;25.90;;;23.15;;
14945;SDS011;7567;50.916;6.900;2022-07-23T04:34:17;24.33;;;21.75;;
14945;SDS011;7567;50.916;6.900;2022-07-23T04:36:43;26.17;;;23.48;;
14945;SDS011;7567;50.916;6.900;2022-07-23T04:39:09;27.75;;;24.83;;
14945;SDS011;7567;50.916;6.900;2022-07-23T04:41:35;25.85;;;23.05;;
14945;SDS011;7567;50.916;6.900;2022-07-23T04:44:01;25.98;;;23.20;;
14945;SDS011;7567;50.916;6.900;2022-07-23T04:46:28;23.42;;;21.10;;
14945;SDS011;7567;50.916;6.900;2022-07-23T04:48:54;23.45;;;20.95;;
14945;SDS011;7567;50.916;6.900;2022-07-23T04:51:20;26.05;;;22.05;;
14945;SDS011;7567;50.916;6.900;2022-07-23T04:53:46;24.63;;;22.00;;
14945;SDS011;7567;50.916;6.900;2022-07-23T04:56:12;20.45;;;18.42;;
14945;SDS011;7567;50.916;6.900;2022-07-23T04:58:38;24.00;;;21.52;;
14945;SDS011;7567;50.916;6.900;2022-07-23T05:01:04;26.45;;;23.65;;
14945;SDS011;7567;50.916;6.900;2022-07-23T05:03:30;23.98;;;21.48;;
14945;SDS011;7567;50.916;6.900;2022-07-23T05:05:56;22.58;;;20.25;;
14945;SDS011;7567;50.916;6.900;2022-07-23T05:08:22;23.65;;;21.13;;
14945;SDS011;7567;50.916;6.900;2022-07-23T05:10:48;26.00;;;23.30;;
14945;SDS011;7567;50.916;6.900;2022-07-23T05:13:15;29.20;;;26.02;;
14945;SDS011;7567;50.916;6.900;2022-07-23T05:15:42;27.67;;;24.80;;
14945;SDS011;7567;50.916;6.900;2022-07-23T05:18:08;31.58;;;25.00;;
14945;SDS011;7567;50.916;6.900;2022-07-23T05:20:34;30.05;;;26.85;;
14945;SDS011;7567;50.916;6.900;2022-07-23T05:23:00;26.95;;;24.15;;
14945;SDS011;7567;50.916;6.900;2022-07-23T05:25:26;27.17;;;24.25;;
14945;SDS011;7567;50.916;6.900;2022-07-23T05:27:52;27.65;;;24.70;;
14945;SDS011;7567;50.916;6.900;2022-07-23T05:30:18;31.85;;;25.15;;
14945;SDS011;7567;50.916;6.900;2022-07-23T05:32:43;27.67;;;24.27;;
14945;SDS011;7567;50.916;6.900;2022-07-23T05:38:41;28.27;;;25.27;;
14945;SDS011;7567;50.916;6.900;2022-07-23T05:41:07;31.55;;;27.05;;
14945;SDS011;7567;50.916;6.900;2022-07-23T05:43:33;31.10;;;27.17;;
14945;SDS011;7567;50.916;6.900;2022-07-23T05:45:58;32.15;;;28.40;;
14945;SDS011;7567;50.916;6.900;2022-07-23T05:48:24;29.67;;;26.48;;
14945;SDS011;7567;50.916;6.900;2022-07-23T05:50:50;30.75;;;26.30;;
14945;SDS011;7567;50.916;6.900;2022-07-23T05:53:16;32.17;;;26.90;;
14945;SDS011;7567;50.916;6.900;2022-07-23T05:55:42;30.33;;;25.35;;
14945;SDS011;7567;50.916;6.900;2022-07-23T05:58:08;33.00;;;26.95;;
14945;SDS011;7567;50.916;6.900;2022-07-23T06:00:34;30.55;;;26.58;;
14945;SDS011;7567;50.916;6.900;2022-07-23T06:03:00;28.63;;;24.65;;
14945;SDS011;7567;50.916;6.900;2022-07-23T06:05:26;30.60;;;24.80;;
14945;SDS011;7567;50.916;6.900;2022-07-23T06:07:52;33.60;;;27.35;;
14945;SDS011;7567;50.916;6.900;2022-07-23T06:10:19;26.73;;;23.52;;
14945;SDS011;7567;50.916;6.900;2022-07-23T06:13:00;27.95;;;24.73;;
14945;SDS011;7567;50.916;6.900;2022-07-23T06:15:26;29.35;;;24.40;;
14945;SDS011;7567;50.916;6.900;2022-07-23T06:17:52;30.88;;;25.55;;
14945;SDS011;7567;50.916;6.900;2022-07-23T06:20:18;28.58;;;23.60;;
14945;SDS011;7567;50.916;6.900;2022-07-23T06:22:44;29.45;;;24.58;;
14945;SDS011;7567;50.916;6.900;2022-07-23T06:25:10;28.13;;;22.58;;
14945;SDS011;7567;50.916;6.900;2022-07-23T06:27:36;27.73;;;21.52;;
14945;SDS011;7567;50.916;6.900;2022-07-23T06:30:02;25.58;;;20.75;;
14945;SDS011;7567;50.916;6.900;2022-07-23T06:32:28;21.85;;;19.75;;
14945;SDS011;7567;50.916;6.900;2022-07-23T06:34:54;23.25;;;19.98;;
14945;SDS011;7567;50.916;6.900;2022-07-23T06:37:20;26.02;;;19.60;;
14945;SDS011;7567;50.916;6.900;2022-07-23T06:39:46;26.10;;;20.63;;
14945;SDS011;7567;50.916;6.900;2022-07-23T06:42:30;24.27;;;20.13;;
14945;SDS011;7567;50.916;6.900;2022-07-23T06:44:56;20.77;;;18.30;;
14945;SDS011;7567;50.916;6.900;2022-07-23T06:47:22;18.98;;;16.98;;
14945;SDS011;7567;50.916;6.900;2022-07-23T06:49:48;20.33;;;18.10;;
14945;SDS011;7567;50.916;6.900;2022-07-23T06:52:14;20.90;;;17.40;;
14945;SDS011;7567;50.916;6.900;2022-07-23T06:54:40;21.92;;;19.23;;
14945;SDS011;7567;50.916;6.900;2022-07-23T06:57:12;20.17;;;17.85;;
14945;SDS011;7567;50.916;6.900;2022-07-23T06:59:38;23.80;;;18.85;;
14945;SDS011;7567;50.916;6.900;2022-07-23T07:02:05;19.25;;;17.02;;
14945;SDS011;7567;50.916;6.900;2022-07-23T07:04:32;19.13;;;17.08;;
14945;SDS011;7567;50.916;6.900;2022-07-23T07:06:58;16.52;;;14.85;;
14945;SDS011;7567;50.916;6.900;2022-07-23T07:09:24;19.42;;;15.07;;
14945;SDS011;7567;50.916;6.900;2022-07-23T07:11:50;18.73;;;15.88;;
14945;SDS011;7567;50.916;6.900;2022-07-23T07:14:16;20.48;;;17.38;;
14945;SDS011;7567;50.916;6.900;2022-07-23T07:16:42;18.70;;;15.85;;
14945;SDS011;7567;50.916;6.900;2022-07-23T07:19:08;17.70;;;15.45;;
14945;SDS011;7567;50.916;6.900;2022-07-23T07:21:34;16.25;;;14.55;;
14945;SDS011;7567;50.916;6.900;2022-07-23T07:24:00;17.02;;;15.23;;
14945;SDS011;7567;50.916;6.900;2022-07-23T07:26:26;17.08;;;14.32;;
14945;SDS011;7567;50.916;6.900;2022-07-23T07:28:52;15.57;;;13.80;;
14945;SDS011;7567;50.916;6.900;2022-07-23T07:31:18;17.65;;;14.18;;
14945;SDS011;7567;50.916;6.900;2022-07-23T07:33:44;16.27;;;13.45;;
14945;SDS011;7567;50.916;6.900;2022-07-23T07:36:10;15.27;;;12.43;;
14945;SDS011;7567;50.916;6.900;2022-07-23T07:38:36;14.73;;;11.57;;
14945;SDS011;7567;50.916;6.900;2022-07-23T07:41:02;17.42;;;12.80;;
14945;SDS011;7567;50.916;6.900;2022-07-23T07:43:28;17.23;;;12.65;;
14945;SDS011;7567;50.916;6.900;2022-07-23T07:45:54;14.35;;;11.68;;
14945;SDS011;7567;50.916;6.900;2022-07-23T07:48:20;12.07;;;9.98;;
14945;SDS011;7567;50.916;6.900;2022-07-23T07:50:45;13.32;;;10.05;;
14945;SDS011;7567;50.916;6.900;2022-07-23T07:53:11;9.32;;;8.43;;
14945;SDS011;7567;50.916;6.900;2022-07-23T07:55:37;14.40;;;10.23;;
14945;SDS011;7567;50.916;6.900;2022-07-23T07:58:04;12.10;;;10.23;;
14945;SDS011;7567;50.916;6.900;2022-07-23T08:00:30;12.68;;;10.07;;
14945;SDS011;7567;50.916;6.900;2022-07-23T08:02:56;17.15;;;13.57;;
14945;SDS011;7567;50.916;6.900;2022-07-23T08:05:23;15.43;;;13.10;;
14945;SDS011;7567;50.916;6.900;2022-07-23T08:07:50;15.63;;;13.93;;
14945;SDS011;7567;50.916;6.900;2022-07-23T08:10:17;15.95;;;13.60;;
14945;SDS011;7567;50.916;6.900;2022-07-23T08:12:44;18.23;;;14.77;;
14945;SDS011;7567;50.916;6.900;2022-07-23T08:15:11;16.05;;;13.93;;
14945;SDS011;7567;50.916;6.900;2022-07-23T08:17:38;15.77;;;13.98;;
14945;SDS011;7567;50.916;6.900;2022-07-23T08:20:06;15.70;;;14.10;;
14945;SDS011;7567;50.916;6.900;2022-07-23T08:22:45;14.43;;;12.40;;
14945;SDS011;7567;50.916;6.900;2022-07-23T08:25:12;13.45;;;11.57;;
14945;SDS011;7567;50.916;6.900;2022-07-23T08:27:39;17.95;;;13.10;;
14945;SDS011;7567;50.916;6.900;2022-07-23T08:30:05;14.65;;;12.20;;
14945;SDS011;7567;50.916;6.900;2022-07-23T08:32:32;13.55;;;11.15;;
14945;SDS011;7567;50.916;6.900;2022-07-23T08:34:58;11.40;;;9.80;;
14945;SDS011;7567;50.916;6.900;2022-07-23T08:37:24;12.15;;;9.77;;
14945;SDS011;7567;50.916;6.900;2022-07-23T08:39:50;12.65;;;10.00;;
14945;SDS011;7567;50.916;6.900;2022-07-23T08:42:16;13.10;;;11.60;;
14945;SDS011;7567;50.916;6.900;2022-07-23T08:44:44;15.77;;;11.20;;
14945;SDS011;7567;50.916;6.900;2022-07-23T08:47:12;13.70;;;11.98;;
14945;SDS011;7567;50.916;6.900;2022-07-23T08:49:40;13.68;;;11.50;;
14945;SDS011;7567;50.916;6.900;2022-07-23T08:52:07;15.38;;;12.27;;
14945;SDS011;7567;50.916;6.900;2022-07-23T08:54:34;15.07;;;12.43;;
14945;SDS011;7567;50.916;6.900;2022-07-23T08:57:00;13.32;;;11.93;;
14945;SDS011;7567;50.916;6.900;2022-07-23T08:59:26;13.38;;;11.98;;
14945;SDS011;7567;50.916;6.900;2022-07-23T09:01:52;14.18;;;10.38;;
14945;SDS011;7567;50.916;6.900;2022-07-23T09:04:18;13.43;;;12.13;;
14945;SDS011;7567;50.916;6.900;2022-07-23T09:06:44;11.27;;;10.10;;
14945;SDS011;7567;50.916;6.900;2022-07-23T09:09:17;12.18;;;10.15;;
14945;SDS011;7567;50.916;6.900;2022-07-23T09:11:47;10.90;;;9.80;;
14945;SDS011;7567;50.916;6.900;2022-07-23T09:14:41;11.90;;;9.18;;
14945;SDS011;7567;50.916;6.900;2022-07-23T09:17:11;11.02;;;9.20;;
14945;SDS011;7567;50.916;6.900;2022-07-23T09:19:39;12.02;;;9.80;;
14945;SDS011;7567;50.916;6.900;2022-07-23T09:22:26;12.85;;;10.25;;
14945;SDS011;7567;50.916;6.900;2022-07-23T09:25:03;11.95;;;10.32;;
14945;SDS011;7567;50.916;6.900;2022-07-23T09:30:34;12.38;;;11.18;;
14945;SDS011;7567;50.916;6.900;2022-07-23T09:33:37;11.73;;;10.30;;
14945;SDS011;7567;50.916;6.900;2022-07-23T09:36:05;9.95;;;8.57;;
14945;SDS011;7567;50.916;6.900;2022-07-23T09:38:36;11.40;;;10.20;;
14945;SDS011;7567;50.916;6.900;2022-07-23T09:41:18;10.60;;;9.48;;
14945;SDS011;7567;50.916;6.900;2022-07-23T09:44:06;11.77;;;9.48;;
14945;SDS011;7567;50.916;6.900;2022-07-23T09:46:35;15.15;;;10.10;;
14945;SDS011;7567;50.916;6.900;2022-07-23T09:49:09;12.52;;;10.90;;
14945;SDS011;7567;50.916;6.900;2022-07-23T09:51:45;12.60;;;10.57;;
14945;SDS011;7567;50.916;6.900;2022-07-23T09:54:20;14.02;;;10.90;;
14945;SDS011;7567;50.916;6.900;2022-07-23T09:56:47;11.10;;;9.85;;
14945;SDS011;7567;50.916;6.900;2022-07-23T09:59:14;12.52;;;9.60;;
14945;SDS011;7567;50.916;6.900;2022-07-23T10:01:44;12.18;;;10.50;;
14945;SDS011;7567;50.916;6.900;2022-07-23T10:04:11;15.30;;;11.40;;
14945;SDS011;7567;50.916;6.900;2022-07-23T10:06:38;9.98;;;8.98;;
14945;SDS011;7567;50.916;6.900;2022-07-23T10:09:06;11.10;;;9.00;;
14945;SDS011;7567;50.916;6.900;2022-07-23T10:11:34;11.50;;;8.35;;
14945;SDS011;7567;50.916;6.900;2022-07-23T10:14:02;8.60;;;7.63;;
14945;SDS011;7567;50.916;6.900;2022-07-23T10:16:36;8.95;;;7.90;;
14945;SDS011;7567;50.916;6.900;2022-07-23T10:19:04;7.30;;;6.60;;
14945;SDS011;7567;50.916;6.900;2022-07-23T10:21:34;8.82;;;7.30;;
14945;SDS011;7567;50.916;6.900;2022-07-23T10:24:16;9.30;;;8.40;;
14945;SDS011;7567;50.916;6.900;2022-07-23T10:29:55;11.40;;;8.10;;
14945;SDS011;7567;50.916;6.900;2022-07-23T10:41:17;8.13;;;6.20;;
14945;SDS011;7567;50.916;6.900;2022-07-23T10:44:18;9.13;;;7.07;;
14945;SDS011;7567;50.916;6.900;2022-07-23T10:47:02;7.18;;;6.13;;
14945;SDS011;7567;50.916;6.900;2022-07-23T10:49:41;8.88;;;7.40;;
14945;SDS011;7567;50.916;6.900;2022-07-23T10:54:42;8.38;;;7.45;;
14945;SDS011;7567;50.916;6.900;2022-07-23T10:57:12;7.68;;;6.25;;
14945;SDS011;7567;50.916;6.900;2022-07-23T11:02:29;7.85;;;6.30;;
14945;SDS011;7567;50.916;6.900;2022-07-23T11:04:59;9.13;;;6.05;;
14945;SDS011;7567;50.916;6.900;2022-07-23T11:07:29;6.65;;;5.35;;
14945;SDS011;7567;50.916;6.900;2022-07-23T11:09:55;7.53;;;6.20;;
14945;SDS011;7567;50.916;6.900;2022-07-23T11:15:09;7.20;;;5.20;;
14945;SDS011;7567;50.916;6.900;2022-07-23T11:22:38;6.68;;;5.47;;
14945;SDS011;7567;50.916;6.900;2022-07-23T11:25:06;6.30;;;5.68;;
14945;SDS011;7567;50.916;6.900;2022-07-23T11:30:09;7.35;;;5.55;;
14945;SDS011;7567;50.916;6.900;2022-07-23T11:32:49;6.18;;;4.78;;
14945;SDS011;7567;50.916;6.900;2022-07-23T11:35:22;5.88;;;4.57;;
14945;SDS011;7567;50.916;6.900;2022-07-23T11:37:51;6.80;;;6.10;;
14945;SDS011;7567;50.916;6.900;2022-07-23T11:40:24;5.80;;;5.30;;
14945;SDS011;7567;50.916;6.900;2022-07-23T11:45:32;5.60;;;4.40;;
14945;SDS011;7567;50.916;6.900;2022-07-23T11:48:00;4.75;;;4.25;;
14945;SDS011;7567;50.916;6.900;2022-07-23T11:50:27;5.13;;;4.55;;
14945;SDS011;7567;50.916;6.900;2022-07-23T11:52:54;4.45;;;4.05;;
14945;SDS011;7567;50.916;6.900;2022-07-23T11:55:20;5.10;;;3.85;;
14945;SDS011;7567;50.916;6.900;2022-07-23T11:57:47;4.50;;;3.92;;
14945;SDS011;7567;50.916;6.900;2022-07-23T12:02:45;6.22;;;5.53;;
14945;SDS011;7567;50.916;6.900;2022-07-23T12:05:14;5.13;;;4.60;;
14945;SDS011;7567;50.916;6.900;2022-07-23T12:07:42;6.93;;;4.22;;
14945;SDS011;7567;50.916;6.900;2022-07-23T12:12:50;4.60;;;3.47;;
14945;SDS011;7567;50.916;6.900;2022-07-23T12:15:23;4.65;;;4.20;;
14945;SDS011;7567;50.916;6.900;2022-07-23T12:17:51;5.57;;;4.38;;
14945;SDS011;7567;50.916;6.900;2022-07-23T12:20:21;5.05;;;4.55;;
14945;SDS011;7567;50.916;6.900;2022-07-23T12:22:49;4.93;;;4.32;;
14945;SDS011;7567;50.916;6.900;2022-07-23T12:25:18;4.05;;;3.63;;
14945;SDS011;7567;50.916;6.900;2022-07-23T12:27:46;5.22;;;3.78;;
14945;SDS011;7567;50.916;6.900;2022-07-23T12:30:27;7.13;;;4.10;;
14945;SDS011;7567;50.916;6.900;2022-07-23T12:33:04;5.10;;;3.95;;
14945;SDS011;7567;50.916;6.900;2022-07-23T12:35:37;5.47;;;3.67;;
14945;SDS011;7567;50.916;6.900;2022-07-23T12:38:09;5.45;;;3.90;;
14945;SDS011;7567;50.916;6.900;2022-07-23T12:40:42;4.03;;;3.40;;
14945;SDS011;7567;50.916;6.900;2022-07-23T12:43:27;3.60;;;3.20;;
14945;SDS011;7567;50.916;6.900;2022-07-23T12:48:32;5.15;;;3.88;;
14945;SDS011;7567;50.916;6.900;2022-07-23T12:51:02;8.27;;;3.42;;
14945;SDS011;7567;50.916;6.900;2022-07-23T12:53:39;6.82;;;5.35;;
14945;SDS011;7567;50.916;6.900;2022-07-23T12:56:18;5.25;;;4.75;;
14945;SDS011;7567;50.916;6.900;2022-07-23T13:01:21;5.28;;;3.63;;
14945;SDS011;7567;50.916;6.900;2022-07-23T13:03:55;4.07;;;3.53;;
14945;SDS011;7567;50.916;6.900;2022-07-23T13:06:33;4.45;;;3.08;;
14945;SDS011;7567;50.916;6.900;2022-07-23T13:09:04;3.58;;;3.13;;
14945;SDS011;7567;50.916;6.900;2022-07-23T13:11:32;7.80;;;2.95;;
14945;SDS011;7567;50.916;6.900;2022-07-23T13:13:58;3.85;;;3.13;;
14945;SDS011;7567;50.916;6.900;2022-07-23T13:16:26;3.85;;;3.20;;
14945;SDS011;7567;50.916;6.900;2022-07-23T13:18:53;4.05;;;2.92;;
14945;SDS011;7567;50.916;6.900;2022-07-23T13:21:19;3.40;;;3.10;;
14945;SDS011;7567;50.916;6.900;2022-07-23T13:23:45;3.92;;;3.00;;
14945;SDS011;7567;50.916;6.900;2022-07-23T13:26:11;3.95;;;2.80;;
14945;SDS011;7567;50.916;6.900;2022-07-23T13:28:37;4.80;;;3.28;;
14945;SDS011;7567;50.916;6.900;2022-07-23T13:31:03;4.20;;;3.00;;
14945;SDS011;7567;50.916;6.900;2022-07-23T13:33:29;4.05;;;2.88;;
14945;SDS011;7567;50.916;6.900;2022-07-23T13:35:55;3.72;;;3.25;;
14945;SDS011;7567;50.916;6.900;2022-07-23T13:38:22;6.50;;;3.58;;
14945;SDS011;7567;50.916;6.900;2022-07-23T13:40:49;4.20;;;2.88;;
14945;SDS011;7567;50.916;6.900;2022-07-23T13:43:16;3.83;;;3.03;;
14945;SDS011;7567;50.916;6.900;2022-07-23T13:45:44;3.70;;;3.15;;
14945;SDS011;7567;50.916;6.900;2022-07-23T13:48:11;4.05;;;3.40;;
14945;SDS011;7567;50.916;6.900;2022-07-23T13:50:38;61.00;;;5.75;;
14945;SDS011;7567;50.916;6.900;2022-07-23T13:53:06;3.15;;;2.85;;
14945;SDS011;7567;50.916;6.900;2022-07-23T13:55:36;4.93;;;3.03;;
14945;SDS011;7567;50.916;6.900;2022-07-23T13:58:04;6.63;;;3.65;;
14945;SDS011;7567;50.916;6.900;2022-07-23T14:00:31;4.78;;;3.30;;
14945;SDS011;7567;50.916;6.900;2022-07-23T14:02:59;4.38;;;3.35;;
14945;SDS011;7567;50.916;6.900;2022-07-23T14:05:25;6.72;;;3.53;;
14945;SDS011;7567;50.916;6.900;2022-07-23T14:07:52;11.27;;;3.80;;
14945;SDS011;7567;50.916;6.900;2022-07-23T14:10:19;6.63;;;4.22;;
14945;SDS011;7567;50.916;6.900;2022-07-23T14:12:46;5.22;;;3.72;;
14945;SDS011;7567;50.916;6.900;2022-07-23T14:15:13;6.60;;;3.33;;
14945;SDS011;7567;50.916;6.900;2022-07-23T14:17:40;4.95;;;3.40;;
14945;SDS011;7567;50.916;6.900;2022-07-23T14:20:08;6.10;;;2.90;;
14945;SDS011;7567;50.916;6.900;2022-07-23T14:22:36;9.90;;;3.38;;
14945;SDS011;7567;50.916;6.900;2022-07-23T14:25:02;3.25;;;2.60;;
14945;SDS011;7567;50.916;6.900;2022-07-23T14:27:29;3.63;;;2.83;;
14945;SDS011;7567;50.916;6.900;2022-07-23T14:29:55;6.07;;;2.97;;
14945;SDS011;7567;50.916;6.900;2022-07-23T14:32:22;4.85;;;3.17;;
14945;SDS011;7567;50.916;6.900;2022-07-23T14:34:48;4.13;;;2.67;;
14945;SDS011;7567;50.916;6.900;2022-07-23T14:37:14;3.88;;;2.97;;
14945;SDS011;7567;50.916;6.900;2022-07-23T14:39:41;5.82;;;2.60;;
14945;SDS011;7567;50.916;6.900;2022-07-23T14:42:08;5.03;;;3.13;;
14945;SDS011;7567;50.916;6.900;2022-07-23T14:44:34;3.80;;;3.13;;
14945;SDS011;7567;50.916;6.900;2022-07-23T14:47:02;3.88;;;2.90;;
14945;SDS011;7567;50.916;6.900;2022-07-23T14:49:29;3.38;;;2.60;;
14945;SDS011;7567;50.916;6.900;2022-07-23T14:51:58;4.45;;;2.75;;
14945;SDS011;7567;50.916;6.900;2022-07-23T14:54:26;4.20;;;2.53;;
14945;SDS011;7567;50.916;6.900;2022-07-23T14:56:53;3.63;;;3.03;;
14945;SDS011;7567;50.916;6.900;2022-07-23T14:59:19;3.53;;;2.80;;
14945;SDS011;7567;50.916;6.900;2022-07-23T15:01:45;3.40;;;3.00;;
14945;SDS011;7567;50.916;6.900;2022-07-23T15:04:12;3.60;;;3.08;;
14945;SDS011;7567;50.916;6.900;2022-07-23T15:06:38;3.95;;;3.08;;
14945;SDS011;7567;50.916;6.900;2022-07-23T15:09:04;4.55;;;3.15;;
14945;SDS011;7567;50.916;6.900;2022-07-23T15:11:30;3.25;;;2.97;;
14945;SDS011;7567;50.916;6.900;2022-07-23T15:14:02;4.05;;;3.17;;
14945;SDS011;7567;50.916;6.900;2022-07-23T15:16:29;3.00;;;2.67;;
14945;SDS011;7567;50.916;6.900;2022-07-23T15:18:55;4.03;;;2.83;;
14945;SDS011;7567;50.916;6.900;2022-07-23T15:21:21;2.97;;;2.45;;
14945;SDS011;7567;50.916;6.900;2022-07-23T15:23:47;5.88;;;3.22;;
14945;SDS011;7567;50.916;6.900;2022-07-23T15:26:13;4.55;;;2.85;;
14945;SDS011;7567;50.916;6.900;2022-07-23T15:28:40;4.47;;;2.95;;
14945;SDS011;7567;50.916;6.900;2022-07-23T15:31:07;2.97;;;2.72;;
14945;SDS011;7567;50.916;6.900;2022-07-23T15:33:33;4.90;;;3.20;;